sensor_id;sensor_type;location;lat;lon;timestamp;P1;durP1;ratioP1;P2;durP2;ratioP2
53064;SDS011;38948;48.376;-4.312;2022-12-17T00:02:39;5.82;;;2.88;;
53064;SDS011;38948;48.376;-4.312;2022-12-17T00:05:23;5.60;;;3.22;;
53064;SDS011;38948;48.376;-4.312;2022-12-17T00:08:07;6.20;;;2.90;;
53064;SDS011;38948;48.376;-4.312;2022-12-17T00:10:52;5.68;;;3.10;;
53064;SDS011;38948;48.376;-4.312;2022-12-17T00:13:36;7.40;;;3.20;;
53064;SDS011;38948;48.376;-4.312;2022-12-17T00:16:20;5.90;;;3.03;;
53064;SDS011;38948;48.376;-4.312;2022-12-17T00:19:04;8.18;;;2.50;;
53064;SDS011;38948;48.376;-4.312;2022-12-17T00:21:48;6.53;;;2.97;;
53064;SDS011;38948;48.376;-4.312;2022-12-17T00:24:33;5.68;;;2.95;;
53064;SDS011;38948;48.376;-4.312;2022-12-17T00:27:18;5.75;;;2.95;;
53064;SDS011;38948;48.376;-4.312;2022-12-17T00:30:03;6.07;;;3.05;;
53064;SDS011;38948;48.376;-4.312;2022-12-17T00:32:47;6.22;;;3.08;;
53064;SDS011;38948;48.376;-4.312;2022-12-17T00:35:31;7.32;;;3.08;;
53064;SDS011;38948;48.376;-4.312;2022-12-17T00:38:16;7.03;;;3.38;;
53064;SDS011;38948;48.376;-4.312;2022-12-17T00:41:01;5.53;;;3.13;;
53064;SDS011;38948;48.376;-4.312;2022-12-17T00:43:45;4.10;;;2.23;;
53064;SDS011;38948;48.376;-4.312;2022-12-17T00:46:29;5.75;;;3.17;;
53064;SDS011;38948;48.376;-4.312;2022-12-17T00:49:15;6.18;;;3.38;;
53064;SDS011;38948;48.376;-4.312;2022-12-17T00:51:59;5.78;;;2.67;;
53064;SDS011;38948;48.376;-4.312;2022-12-17T00:54:48;6.65;;;3.13;;
53064;SDS011;38948;48.376;-4.312;2022-12-17T00:57:32;5.68;;;2.33;;
53064;SDS011;38948;48.376;-4.312;2022-12-17T01:00:16;6.43;;;2.67;;
53064;SDS011;38948;48.376;-4.312;2022-12-17T01:03:03;5.88;;;2.95;;
53064;SDS011;38948;48.376;-4.312;2022-12-17T01:05:49;6.55;;;2.83;;
53064;SDS011;38948;48.376;-4.312;2022-12-17T01:08:33;7.28;;;3.20;;
53064;SDS011;38948;48.376;-4.312;2022-12-17T01:11:17;7.85;;;2.80;;
53064;SDS011;38948;48.376;-4.312;2022-12-17T01:14:21;4.32;;;2.58;;
53064;SDS011;38948;48.376;-4.312;2022-12-17T01:17:06;6.40;;;3.05;;
53064;SDS011;38948;48.376;-4.312;2022-12-17T01:19:50;4.30;;;2.63;;
53064;SDS011;38948;48.376;-4.312;2022-12-17T01:22:35;7.28;;;3.20;;
53064;SDS011;38948;48.376;-4.312;2022-12-17T01:25:19;5.88;;;2.75;;
53064;SDS011;38948;48.376;-4.312;2022-12-17T01:28:03;5.32;;;2.70;;
53064;SDS011;38948;48.376;-4.312;2022-12-17T01:30:47;5.72;;;2.35;;
53064;SDS011;38948;48.376;-4.312;2022-12-17T01:33:31;5.30;;;2.60;;
53064;SDS011;38948;48.376;-4.312;2022-12-17T01:36:15;6.38;;;2.92;;
53064;SDS011;38948;48.376;-4.312;2022-12-17T01:38:59;3.88;;;2.47;;
53064;SDS011;38948;48.376;-4.312;2022-12-17T01:41:44;5.60;;;2.80;;
53064;SDS011;38948;48.376;-4.312;2022-12-17T01:47:22;6.35;;;2.50;;
53064;SDS011;38948;48.376;-4.312;2022-12-17T01:50:08;4.75;;;2.40;;
53064;SDS011;38948;48.376;-4.312;2022-12-17T01:52:54;5.55;;;2.63;;
53064;SDS011;38948;48.376;-4.312;2022-12-17T01:55:42;3.50;;;1.95;;
53064;SDS011;38948;48.376;-4.312;2022-12-17T01:58:26;6.57;;;2.47;;
53064;SDS011;38948;48.376;-4.312;2022-12-17T02:01:11;4.78;;;2.60;;
53064;SDS011;38948;48.376;-4.312;2022-12-17T02:03:55;4.43;;;2.63;;
53064;SDS011;38948;48.376;-4.312;2022-12-17T02:06:40;4.93;;;2.45;;
53064;SDS011;38948;48.376;-4.312;2022-12-17T02:10:01;4.32;;;2.42;;
53064;SDS011;38948;48.376;-4.312;2022-12-17T02:12:50;5.45;;;2.35;;
53064;SDS011;38948;48.376;-4.312;2022-12-17T02:15:39;5.05;;;2.10;;
53064;SDS011;38948;48.376;-4.312;2022-12-17T02:18:35;4.50;;;2.40;;
53064;SDS011;38948;48.376;-4.312;2022-12-17T02:21:28;5.40;;;2.45;;
53064;SDS011;38948;48.376;-4.312;2022-12-17T02:27:20;3.88;;;2.47;;
53064;SDS011;38948;48.376;-4.312;2022-12-17T02:30:06;4.78;;;2.45;;
53064;SDS011;38948;48.376;-4.312;2022-12-17T02:35:57;5.20;;;2.17;;
53064;SDS011;38948;48.376;-4.312;2022-12-17T02:38:48;4.82;;;2.22;;
53064;SDS011;38948;48.376;-4.312;2022-12-17T02:44:33;4.20;;;2.42;;
53064;SDS011;38948;48.376;-4.312;2022-12-17T02:50:03;4.88;;;2.22;;
53064;SDS011;38948;48.376;-4.312;2022-12-17T02:52:48;4.50;;;2.28;;
53064;SDS011;38948;48.376;-4.312;2022-12-17T02:55:33;3.38;;;2.15;;
53064;SDS011;38948;48.376;-4.312;2022-12-17T03:01:02;4.95;;;2.17;;
53064;SDS011;38948;48.376;-4.312;2022-12-17T03:03:47;5.78;;;2.38;;
53064;SDS011;38948;48.376;-4.312;2022-12-17T03:06:31;3.85;;;2.28;;
53064;SDS011;38948;48.376;-4.312;2022-12-17T03:09:15;4.80;;;2.47;;
53064;SDS011;38948;48.376;-4.312;2022-12-17T03:12:00;4.63;;;2.10;;
53064;SDS011;38948;48.376;-4.312;2022-12-17T03:14:44;3.60;;;2.20;;
53064;SDS011;38948;48.376;-4.312;2022-12-17T03:17:28;3.58;;;2.05;;
53064;SDS011;38948;48.376;-4.312;2022-12-17T03:20:13;3.35;;;1.92;;
53064;SDS011;38948;48.376;-4.312;2022-12-17T03:23:01;3.72;;;2.03;;
53064;SDS011;38948;48.376;-4.312;2022-12-17T03:25:50;3.92;;;2.22;;
53064;SDS011;38948;48.376;-4.312;2022-12-17T03:28:34;3.75;;;2.10;;
53064;SDS011;38948;48.376;-4.312;2022-12-17T03:31:19;4.28;;;2.10;;
53064;SDS011;38948;48.376;-4.312;2022-12-17T03:34:03;3.20;;;1.88;;
53064;SDS011;38948;48.376;-4.312;2022-12-17T03:36:47;4.32;;;2.38;;
53064;SDS011;38948;48.376;-4.312;2022-12-17T03:39:31;3.05;;;2.15;;
53064;SDS011;38948;48.376;-4.312;2022-12-17T03:42:16;4.70;;;1.80;;
53064;SDS011;38948;48.376;-4.312;2022-12-17T03:45:00;3.83;;;2.10;;
53064;SDS011;38948;48.376;-4.312;2022-12-17T03:47:44;3.88;;;2.28;;
53064;SDS011;38948;48.376;-4.312;2022-12-17T03:50:28;3.67;;;2.15;;
53064;SDS011;38948;48.376;-4.312;2022-12-17T03:53:12;3.42;;;2.00;;
53064;SDS011;38948;48.376;-4.312;2022-12-17T03:55:56;3.72;;;1.92;;
53064;SDS011;38948;48.376;-4.312;2022-12-17T03:58:40;3.40;;;2.08;;
53064;SDS011;38948;48.376;-4.312;2022-12-17T04:01:24;4.15;;;1.90;;
53064;SDS011;38948;48.376;-4.312;2022-12-17T04:04:08;2.63;;;1.40;;
53064;SDS011;38948;48.376;-4.312;2022-12-17T04:06:53;3.65;;;1.90;;
53064;SDS011;38948;48.376;-4.312;2022-12-17T04:09:36;3.60;;;2.10;;
53064;SDS011;38948;48.376;-4.312;2022-12-17T04:12:21;3.10;;;1.67;;
53064;SDS011;38948;48.376;-4.312;2022-12-17T04:15:05;3.30;;;1.85;;
53064;SDS011;38948;48.376;-4.312;2022-12-17T04:17:49;2.92;;;1.65;;
53064;SDS011;38948;48.376;-4.312;2022-12-17T04:20:35;3.95;;;2.00;;
53064;SDS011;38948;48.376;-4.312;2022-12-17T04:23:20;4.00;;;2.08;;
53064;SDS011;38948;48.376;-4.312;2022-12-17T04:26:04;4.25;;;1.88;;
53064;SDS011;38948;48.376;-4.312;2022-12-17T04:28:48;3.60;;;1.83;;
53064;SDS011;38948;48.376;-4.312;2022-12-17T04:31:32;3.05;;;1.88;;
53064;SDS011;38948;48.376;-4.312;2022-12-17T04:34:16;4.93;;;1.90;;
53064;SDS011;38948;48.376;-4.312;2022-12-17T04:37:01;4.13;;;2.03;;
53064;SDS011;38948;48.376;-4.312;2022-12-17T04:39:45;3.45;;;1.70;;
53064;SDS011;38948;48.376;-4.312;2022-12-17T04:42:37;3.22;;;1.40;;
53064;SDS011;38948;48.376;-4.312;2022-12-17T04:45:21;2.53;;;1.60;;
53064;SDS011;38948;48.376;-4.312;2022-12-17T04:48:06;3.67;;;1.98;;
53064;SDS011;38948;48.376;-4.312;2022-12-17T04:50:51;2.85;;;1.73;;
53064;SDS011;38948;48.376;-4.312;2022-12-17T04:53:35;3.53;;;2.08;;
53064;SDS011;38948;48.376;-4.312;2022-12-17T04:56:20;3.95;;;1.67;;
53064;SDS011;38948;48.376;-4.312;2022-12-17T04:59:04;2.97;;;1.75;;
53064;SDS011;38948;48.376;-4.312;2022-12-17T05:01:48;2.80;;;1.75;;
53064;SDS011;38948;48.376;-4.312;2022-12-17T05:04:32;4.47;;;1.73;;
53064;SDS011;38948;48.376;-4.312;2022-12-17T05:07:16;4.35;;;1.80;;
53064;SDS011;38948;48.376;-4.312;2022-12-17T05:10:00;3.25;;;1.65;;
53064;SDS011;38948;48.376;-4.312;2022-12-17T05:12:45;3.17;;;1.47;;
53064;SDS011;38948;48.376;-4.312;2022-12-17T05:15:29;2.58;;;1.40;;
53064;SDS011;38948;48.376;-4.312;2022-12-17T05:18:13;4.03;;;1.83;;
53064;SDS011;38948;48.376;-4.312;2022-12-17T05:20:57;2.70;;;1.88;;
53064;SDS011;38948;48.376;-4.312;2022-12-17T05:23:41;2.85;;;1.60;;
53064;SDS011;38948;48.376;-4.312;2022-12-17T05:26:26;3.60;;;1.80;;
53064;SDS011;38948;48.376;-4.312;2022-12-17T05:31:55;3.30;;;1.63;;
53064;SDS011;38948;48.376;-4.312;2022-12-17T05:34:40;2.75;;;1.50;;
53064;SDS011;38948;48.376;-4.312;2022-12-17T05:37:24;5.15;;;1.48;;
53064;SDS011;38948;48.376;-4.312;2022-12-17T05:40:08;3.90;;;1.60;;
53064;SDS011;38948;48.376;-4.312;2022-12-17T05:42:59;2.97;;;1.50;;
53064;SDS011;38948;48.376;-4.312;2022-12-17T05:45:46;3.40;;;1.60;;
53064;SDS011;38948;48.376;-4.312;2022-12-17T05:48:31;3.35;;;1.85;;
53064;SDS011;38948;48.376;-4.312;2022-12-17T05:51:17;2.88;;;1.77;;
53064;SDS011;38948;48.376;-4.312;2022-12-17T05:54:02;3.03;;;1.60;;
53064;SDS011;38948;48.376;-4.312;2022-12-17T05:56:46;2.75;;;1.40;;
53064;SDS011;38948;48.376;-4.312;2022-12-17T05:59:35;2.15;;;1.20;;
53064;SDS011;38948;48.376;-4.312;2022-12-17T06:02:19;2.58;;;1.60;;
53064;SDS011;38948;48.376;-4.312;2022-12-17T06:05:04;4.07;;;1.77;;
53064;SDS011;38948;48.376;-4.312;2022-12-17T06:07:48;4.20;;;2.10;;
53064;SDS011;38948;48.376;-4.312;2022-12-17T06:10:32;3.38;;;1.67;;
53064;SDS011;38948;48.376;-4.312;2022-12-17T06:13:16;2.45;;;1.23;;
53064;SDS011;38948;48.376;-4.312;2022-12-17T06:16:00;3.00;;;1.50;;
53064;SDS011;38948;48.376;-4.312;2022-12-17T06:18:49;4.07;;;1.50;;
53064;SDS011;38948;48.376;-4.312;2022-12-17T06:21:35;2.33;;;1.50;;
53064;SDS011;38948;48.376;-4.312;2022-12-17T06:24:19;2.53;;;1.60;;
53064;SDS011;38948;48.376;-4.312;2022-12-17T06:27:03;4.25;;;1.65;;
53064;SDS011;38948;48.376;-4.312;2022-12-17T06:29:47;2.95;;;1.33;;
53064;SDS011;38948;48.376;-4.312;2022-12-17T06:32:31;2.22;;;1.50;;
53064;SDS011;38948;48.376;-4.312;2022-12-17T06:35:15;2.45;;;1.30;;
53064;SDS011;38948;48.376;-4.312;2022-12-17T06:38:00;2.65;;;1.42;;
53064;SDS011;38948;48.376;-4.312;2022-12-17T06:40:46;3.58;;;1.55;;
53064;SDS011;38948;48.376;-4.312;2022-12-17T06:43:30;2.90;;;1.40;;
53064;SDS011;38948;48.376;-4.312;2022-12-17T06:46:14;3.10;;;1.30;;
53064;SDS011;38948;48.376;-4.312;2022-12-17T06:48:58;2.25;;;1.50;;
53064;SDS011;38948;48.376;-4.312;2022-12-17T06:51:42;3.05;;;1.52;;
53064;SDS011;38948;48.376;-4.312;2022-12-17T06:54:27;2.30;;;1.40;;
53064;SDS011;38948;48.376;-4.312;2022-12-17T06:57:11;2.40;;;1.45;;
53064;SDS011;38948;48.376;-4.312;2022-12-17T06:59:55;3.20;;;1.60;;
53064;SDS011;38948;48.376;-4.312;2022-12-17T07:02:39;4.00;;;2.00;;
53064;SDS011;38948;48.376;-4.312;2022-12-17T07:05:23;2.53;;;1.52;;
53064;SDS011;38948;48.376;-4.312;2022-12-17T07:08:07;2.42;;;1.63;;
53064;SDS011;38948;48.376;-4.312;2022-12-17T07:10:52;3.92;;;1.92;;
53064;SDS011;38948;48.376;-4.312;2022-12-17T07:13:36;2.72;;;1.60;;
53064;SDS011;38948;48.376;-4.312;2022-12-17T07:16:20;3.03;;;1.65;;
53064;SDS011;38948;48.376;-4.312;2022-12-17T07:19:05;2.50;;;1.40;;
53064;SDS011;38948;48.376;-4.312;2022-12-17T07:21:49;2.30;;;1.48;;
53064;SDS011;38948;48.376;-4.312;2022-12-17T07:24:33;3.50;;;1.50;;
53064;SDS011;38948;48.376;-4.312;2022-12-17T07:27:17;3.28;;;1.58;;
53064;SDS011;38948;48.376;-4.312;2022-12-17T07:30:01;2.42;;;1.30;;
53064;SDS011;38948;48.376;-4.312;2022-12-17T07:32:46;4.10;;;1.52;;
53064;SDS011;38948;48.376;-4.312;2022-12-17T07:35:39;4.53;;;2.10;;
53064;SDS011;38948;48.376;-4.312;2022-12-17T07:38:23;3.30;;;1.70;;
53064;SDS011;38948;48.376;-4.312;2022-12-17T07:41:07;3.00;;;1.60;;
53064;SDS011;38948;48.376;-4.312;2022-12-17T07:43:51;2.55;;;1.58;;
53064;SDS011;38948;48.376;-4.312;2022-12-17T07:46:35;3.70;;;1.50;;
53064;SDS011;38948;48.376;-4.312;2022-12-17T07:49:20;2.63;;;1.50;;
53064;SDS011;38948;48.376;-4.312;2022-12-17T07:52:04;2.63;;;1.33;;
53064;SDS011;38948;48.376;-4.312;2022-12-17T07:54:48;2.20;;;1.42;;
53064;SDS011;38948;48.376;-4.312;2022-12-17T07:57:32;3.15;;;1.52;;
53064;SDS011;38948;48.376;-4.312;2022-12-17T08:00:21;3.05;;;1.55;;
53064;SDS011;38948;48.376;-4.312;2022-12-17T08:03:05;2.25;;;1.23;;
53064;SDS011;38948;48.376;-4.312;2022-12-17T08:05:49;2.90;;;1.73;;
53064;SDS011;38948;48.376;-4.312;2022-12-17T08:08:33;2.40;;;1.70;;
53064;SDS011;38948;48.376;-4.312;2022-12-17T08:11:22;2.70;;;1.70;;
53064;SDS011;38948;48.376;-4.312;2022-12-17T08:14:06;3.55;;;1.77;;
53064;SDS011;38948;48.376;-4.312;2022-12-17T08:16:50;2.72;;;1.58;;
53064;SDS011;38948;48.376;-4.312;2022-12-17T08:19:34;4.55;;;2.15;;
53064;SDS011;38948;48.376;-4.312;2022-12-17T08:22:18;3.67;;;2.03;;
53064;SDS011;38948;48.376;-4.312;2022-12-17T08:25:02;3.78;;;2.22;;
53064;SDS011;38948;48.376;-4.312;2022-12-17T08:27:47;8.63;;;2.22;;
53064;SDS011;38948;48.376;-4.312;2022-12-17T08:30:31;4.63;;;1.90;;
53064;SDS011;38948;48.376;-4.312;2022-12-17T08:33:15;4.40;;;2.20;;
53064;SDS011;38948;48.376;-4.312;2022-12-17T08:35:59;4.50;;;2.00;;
53064;SDS011;38948;48.376;-4.312;2022-12-17T08:38:43;3.90;;;1.95;;
53064;SDS011;38948;48.376;-4.312;2022-12-17T08:41:28;3.15;;;1.77;;
53064;SDS011;38948;48.376;-4.312;2022-12-17T08:44:12;4.32;;;1.92;;
53064;SDS011;38948;48.376;-4.312;2022-12-17T08:46:56;4.32;;;2.15;;
53064;SDS011;38948;48.376;-4.312;2022-12-17T08:49:40;6.28;;;2.50;;
53064;SDS011;38948;48.376;-4.312;2022-12-17T08:52:25;5.22;;;2.35;;
53064;SDS011;38948;48.376;-4.312;2022-12-17T08:55:09;5.67;;;2.67;;
53064;SDS011;38948;48.376;-4.312;2022-12-17T08:57:54;5.28;;;2.58;;
53064;SDS011;38948;48.376;-4.312;2022-12-17T09:00:39;5.68;;;2.55;;
53064;SDS011;38948;48.376;-4.312;2022-12-17T09:03:24;4.22;;;2.40;;
53064;SDS011;38948;48.376;-4.312;2022-12-17T09:06:09;4.38;;;2.42;;
53064;SDS011;38948;48.376;-4.312;2022-12-17T09:08:54;6.88;;;3.00;;
53064;SDS011;38948;48.376;-4.312;2022-12-17T09:11:39;5.20;;;2.40;;
53064;SDS011;38948;48.376;-4.312;2022-12-17T09:14:24;4.22;;;2.40;;
53064;SDS011;38948;48.376;-4.312;2022-12-17T09:17:08;4.07;;;2.20;;
53064;SDS011;38948;48.376;-4.312;2022-12-17T09:19:52;4.90;;;2.88;;
53064;SDS011;38948;48.376;-4.312;2022-12-17T09:22:36;3.83;;;2.17;;
53064;SDS011;38948;48.376;-4.312;2022-12-17T09:25:20;4.43;;;2.33;;
53064;SDS011;38948;48.376;-4.312;2022-12-17T09:28:05;5.00;;;2.33;;
53064;SDS011;38948;48.376;-4.312;2022-12-17T09:30:49;3.28;;;2.00;;
53064;SDS011;38948;48.376;-4.312;2022-12-17T09:33:34;6.18;;;2.30;;
53064;SDS011;38948;48.376;-4.312;2022-12-17T09:36:18;4.93;;;1.98;;
53064;SDS011;38948;48.376;-4.312;2022-12-17T09:39:02;5.18;;;2.40;;
53064;SDS011;38948;48.376;-4.312;2022-12-17T09:47:54;3.10;;;1.95;;
53064;SDS011;38948;48.376;-4.312;2022-12-17T09:50:57;3.20;;;2.08;;
53064;SDS011;38948;48.376;-4.312;2022-12-17T09:53:43;4.85;;;2.17;;
53064;SDS011;38948;48.376;-4.312;2022-12-17T09:56:37;4.53;;;2.10;;
53064;SDS011;38948;48.376;-4.312;2022-12-17T09:59:28;5.40;;;2.47;;
53064;SDS011;38948;48.376;-4.312;2022-12-17T10:02:22;5.15;;;1.90;;
53064;SDS011;38948;48.376;-4.312;2022-12-17T10:05:14;6.10;;;2.00;;
53064;SDS011;38948;48.376;-4.312;2022-12-17T10:08:13;4.93;;;1.80;;
53064;SDS011;38948;48.376;-4.312;2022-12-17T10:11:09;4.30;;;2.42;;
53064;SDS011;38948;48.376;-4.312;2022-12-17T10:13:54;3.38;;;1.75;;
53064;SDS011;38948;48.376;-4.312;2022-12-17T10:16:43;8.80;;;2.63;;
53064;SDS011;38948;48.376;-4.312;2022-12-17T10:19:33;7.57;;;2.42;;
53064;SDS011;38948;48.376;-4.312;2022-12-17T10:22:21;6.18;;;1.77;;
53064;SDS011;38948;48.376;-4.312;2022-12-17T10:25:08;9.25;;;2.67;;
53064;SDS011;38948;48.376;-4.312;2022-12-17T10:28:04;8.70;;;2.72;;
53064;SDS011;38948;48.376;-4.312;2022-12-17T10:30:57;8.40;;;2.08;;
53064;SDS011;38948;48.376;-4.312;2022-12-17T10:33:41;6.15;;;1.98;;
53064;SDS011;38948;48.376;-4.312;2022-12-17T10:36:26;7.55;;;1.90;;
53064;SDS011;38948;48.376;-4.312;2022-12-17T10:39:15;5.20;;;1.80;;
53064;SDS011;38948;48.376;-4.312;2022-12-17T10:42:02;4.82;;;2.00;;
53064;SDS011;38948;48.376;-4.312;2022-12-17T10:45:13;5.43;;;1.95;;
53064;SDS011;38948;48.376;-4.312;2022-12-17T10:48:00;3.97;;;1.85;;
53064;SDS011;38948;48.376;-4.312;2022-12-17T10:50:44;4.18;;;1.50;;
53064;SDS011;38948;48.376;-4.312;2022-12-17T10:53:28;3.00;;;1.77;;
53064;SDS011;38948;48.376;-4.312;2022-12-17T10:56:20;5.47;;;1.88;;
53064;SDS011;38948;48.376;-4.312;2022-12-17T10:59:11;4.22;;;1.52;;
53064;SDS011;38948;48.376;-4.312;2022-12-17T11:02:16;3.63;;;1.55;;
53064;SDS011;38948;48.376;-4.312;2022-12-17T11:05:13;4.47;;;1.70;;
53064;SDS011;38948;48.376;-4.312;2022-12-17T11:08:01;3.30;;;1.60;;
53064;SDS011;38948;48.376;-4.312;2022-12-17T11:10:46;6.35;;;1.70;;
53064;SDS011;38948;48.376;-4.312;2022-12-17T11:13:42;2.47;;;1.33;;
53064;SDS011;38948;48.376;-4.312;2022-12-17T11:16:33;2.50;;;1.38;;
53064;SDS011;38948;48.376;-4.312;2022-12-17T11:19:30;5.55;;;1.35;;
53064;SDS011;38948;48.376;-4.312;2022-12-17T11:22:21;3.97;;;1.60;;
53064;SDS011;38948;48.376;-4.312;2022-12-17T11:28:39;3.85;;;1.40;;
53064;SDS011;38948;48.376;-4.312;2022-12-17T11:41:09;3.30;;;1.40;;
53064;SDS011;38948;48.376;-4.312;2022-12-17T11:53:26;3.40;;;1.15;;
53064;SDS011;38948;48.376;-4.312;2022-12-17T11:56:27;2.03;;;1.10;;
53064;SDS011;38948;48.376;-4.312;2022-12-17T12:02:59;1.48;;;1.10;;
53064;SDS011;38948;48.376;-4.312;2022-12-17T12:06:02;2.37;;;1.30;;
53064;SDS011;38948;48.376;-4.312;2022-12-17T12:12:42;1.95;;;1.10;;
53064;SDS011;38948;48.376;-4.312;2022-12-17T12:18:49;1.50;;;1.05;;
53064;SDS011;38948;48.376;-4.312;2022-12-17T12:21:38;2.83;;;1.20;;
53064;SDS011;38948;48.376;-4.312;2022-12-17T12:31:05;2.05;;;1.00;;
53064;SDS011;38948;48.376;-4.312;2022-12-17T12:33:49;2.50;;;1.05;;
53064;SDS011;38948;48.376;-4.312;2022-12-17T12:36:41;1.85;;;0.98;;
53064;SDS011;38948;48.376;-4.312;2022-12-17T12:39:33;1.58;;;0.90;;
53064;SDS011;38948;48.376;-4.312;2022-12-17T12:42:35;1.50;;;0.90;;
53064;SDS011;38948;48.376;-4.312;2022-12-17T12:51:53;2.60;;;1.20;;
53064;SDS011;38948;48.376;-4.312;2022-12-17T12:57:32;2.72;;;1.10;;
53064;SDS011;38948;48.376;-4.312;2022-12-17T13:06:14;2.25;;;0.90;;
53064;SDS011;38948;48.376;-4.312;2022-12-17T13:14:33;2.15;;;0.90;;
53064;SDS011;38948;48.376;-4.312;2022-12-17T13:17:07;2.22;;;0.90;;
53064;SDS011;38948;48.376;-4.312;2022-12-17T13:24:47;0.85;;;0.57;;
53064;SDS011;38948;48.376;-4.312;2022-12-17T13:30:20;1.90;;;0.95;;
53064;SDS011;38948;48.376;-4.312;2022-12-17T13:39:04;3.60;;;1.42;;
53064;SDS011;38948;48.376;-4.312;2022-12-17T13:41:46;0.93;;;0.77;;
53064;SDS011;38948;48.376;-4.312;2022-12-17T13:44:19;2.08;;;1.10;;
53064;SDS011;38948;48.376;-4.312;2022-12-17T13:46:48;1.92;;;0.80;;
53064;SDS011;38948;48.376;-4.312;2022-12-17T13:49:17;1.27;;;0.88;;
53064;SDS011;38948;48.376;-4.312;2022-12-17T13:52:06;5.55;;;1.08;;
53064;SDS011;38948;48.376;-4.312;2022-12-17T13:54:41;2.00;;;1.15;;
53064;SDS011;38948;48.376;-4.312;2022-12-17T13:59:50;2.92;;;1.00;;
53064;SDS011;38948;48.376;-4.312;2022-12-17T14:02:28;1.65;;;0.90;;
53064;SDS011;38948;48.376;-4.312;2022-12-17T14:04:58;1.05;;;0.80;;
53064;SDS011;38948;48.376;-4.312;2022-12-17T14:07:27;2.42;;;0.85;;
53064;SDS011;38948;48.376;-4.312;2022-12-17T14:09:54;1.25;;;1.00;;
53064;SDS011;38948;48.376;-4.312;2022-12-17T14:12:22;1.90;;;0.75;;
53064;SDS011;38948;48.376;-4.312;2022-12-17T14:15:01;1.95;;;0.80;;
53064;SDS011;38948;48.376;-4.312;2022-12-17T14:17:45;2.38;;;0.90;;
53064;SDS011;38948;48.376;-4.312;2022-12-17T14:20:13;5.03;;;0.90;;
53064;SDS011;38948;48.376;-4.312;2022-12-17T14:22:43;1.83;;;0.90;;
53064;SDS011;38948;48.376;-4.312;2022-12-17T14:25:21;2.63;;;0.98;;
53064;SDS011;38948;48.376;-4.312;2022-12-17T14:27:54;1.83;;;1.00;;
53064;SDS011;38948;48.376;-4.312;2022-12-17T14:30:39;1.92;;;0.85;;
53064;SDS011;38948;48.376;-4.312;2022-12-17T14:36:04;3.35;;;1.00;;
53064;SDS011;38948;48.376;-4.312;2022-12-17T14:38:32;1.65;;;1.00;;
53064;SDS011;38948;48.376;-4.312;2022-12-17T14:41:11;3.03;;;1.00;;
53064;SDS011;38948;48.376;-4.312;2022-12-17T14:43:57;2.72;;;0.90;;
53064;SDS011;38948;48.376;-4.312;2022-12-17T14:46:24;1.45;;;0.98;;
53064;SDS011;38948;48.376;-4.312;2022-12-17T14:48:52;2.58;;;1.30;;
53064;SDS011;38948;48.376;-4.312;2022-12-17T14:51:36;2.22;;;1.00;;
53064;SDS011;38948;48.376;-4.312;2022-12-17T14:54:45;1.90;;;1.10;;
53064;SDS011;38948;48.376;-4.312;2022-12-17T14:56:54;4.05;;;1.30;;
53064;SDS011;38948;48.376;-4.312;2022-12-17T15:02:01;1.77;;;1.08;;
53064;SDS011;38948;48.376;-4.312;2022-12-17T15:04:50;4.28;;;0.90;;
53064;SDS011;38948;48.376;-4.312;2022-12-17T15:07:26;3.22;;;1.05;;
53064;SDS011;38948;48.376;-4.312;2022-12-17T15:09:53;3.30;;;1.25;;
53064;SDS011;38948;48.376;-4.312;2022-12-17T15:12:20;1.63;;;1.00;;
53064;SDS011;38948;48.376;-4.312;2022-12-17T15:14:47;1.80;;;0.98;;
53064;SDS011;38948;48.376;-4.312;2022-12-17T15:17:13;2.10;;;1.50;;
53064;SDS011;38948;48.376;-4.312;2022-12-17T15:19:39;3.63;;;1.25;;
53064;SDS011;38948;48.376;-4.312;2022-12-17T15:22:05;1.75;;;1.15;;
53064;SDS011;38948;48.376;-4.312;2022-12-17T15:24:34;3.03;;;1.13;;
53064;SDS011;38948;48.376;-4.312;2022-12-17T15:27:00;2.88;;;1.10;;
53064;SDS011;38948;48.376;-4.312;2022-12-17T15:29:26;1.80;;;1.13;;
53064;SDS011;38948;48.376;-4.312;2022-12-17T15:31:52;2.05;;;1.10;;
53064;SDS011;38948;48.376;-4.312;2022-12-17T15:34:18;3.15;;;1.30;;
53064;SDS011;38948;48.376;-4.312;2022-12-17T15:36:44;2.80;;;1.08;;
53064;SDS011;38948;48.376;-4.312;2022-12-17T15:39:10;1.90;;;1.10;;
53064;SDS011;38948;48.376;-4.312;2022-12-17T15:41:35;4.10;;;1.27;;
53064;SDS011;38948;48.376;-4.312;2022-12-17T15:44:20;2.38;;;1.20;;
53064;SDS011;38948;48.376;-4.312;2022-12-17T15:46:45;1.58;;;0.93;;
53064;SDS011;38948;48.376;-4.312;2022-12-17T15:49:12;2.40;;;1.25;;
53064;SDS011;38948;48.376;-4.312;2022-12-17T15:51:37;2.05;;;1.40;;
53064;SDS011;38948;48.376;-4.312;2022-12-17T15:54:03;2.40;;;1.13;;
53064;SDS011;38948;48.376;-4.312;2022-12-17T15:56:29;2.20;;;1.35;;
53064;SDS011;38948;48.376;-4.312;2022-12-17T15:58:55;2.25;;;1.27;;
53064;SDS011;38948;48.376;-4.312;2022-12-17T16:01:22;2.30;;;1.23;;
53064;SDS011;38948;48.376;-4.312;2022-12-17T16:03:51;2.22;;;1.50;;
53064;SDS011;38948;48.376;-4.312;2022-12-17T16:06:17;2.88;;;1.17;;
53064;SDS011;38948;48.376;-4.312;2022-12-17T16:08:42;3.13;;;1.30;;
53064;SDS011;38948;48.376;-4.312;2022-12-17T16:11:09;2.22;;;1.10;;
53064;SDS011;38948;48.376;-4.312;2022-12-17T16:13:36;2.72;;;1.50;;
53064;SDS011;38948;48.376;-4.312;2022-12-17T16:16:03;2.08;;;1.50;;
53064;SDS011;38948;48.376;-4.312;2022-12-17T16:18:29;3.15;;;1.20;;
53064;SDS011;38948;48.376;-4.312;2022-12-17T16:21:00;5.28;;;1.50;;
53064;SDS011;38948;48.376;-4.312;2022-12-17T16:23:30;3.45;;;1.52;;
53064;SDS011;38948;48.376;-4.312;2022-12-17T16:25:57;3.08;;;1.35;;
53064;SDS011;38948;48.376;-4.312;2022-12-17T16:28:23;2.22;;;1.52;;
53064;SDS011;38948;48.376;-4.312;2022-12-17T16:31:00;5.10;;;1.45;;
53064;SDS011;38948;48.376;-4.312;2022-12-17T16:33:35;2.95;;;1.60;;
53064;SDS011;38948;48.376;-4.312;2022-12-17T16:36:04;2.20;;;1.30;;
53064;SDS011;38948;48.376;-4.312;2022-12-17T16:38:31;2.75;;;1.50;;
53064;SDS011;38948;48.376;-4.312;2022-12-17T16:40:58;4.68;;;2.00;;
53064;SDS011;38948;48.376;-4.312;2022-12-17T16:43:26;4.88;;;1.67;;
53064;SDS011;38948;48.376;-4.312;2022-12-17T16:45:53;3.85;;;1.92;;
53064;SDS011;38948;48.376;-4.312;2022-12-17T16:48:19;2.45;;;1.60;;
53064;SDS011;38948;48.376;-4.312;2022-12-17T16:50:46;2.80;;;1.80;;
53064;SDS011;38948;48.376;-4.312;2022-12-17T16:53:13;3.28;;;1.80;;
53064;SDS011;38948;48.376;-4.312;2022-12-17T16:55:40;4.57;;;2.25;;
53064;SDS011;38948;48.376;-4.312;2022-12-17T16:58:07;3.75;;;1.83;;
53064;SDS011;38948;48.376;-4.312;2022-12-17T17:00:33;4.70;;;2.20;;
53064;SDS011;38948;48.376;-4.312;2022-12-17T17:03:00;3.47;;;2.08;;
53064;SDS011;38948;48.376;-4.312;2022-12-17T17:05:25;4.38;;;2.58;;
53064;SDS011;38948;48.376;-4.312;2022-12-17T17:07:51;5.07;;;2.42;;
53064;SDS011;38948;48.376;-4.312;2022-12-17T17:10:18;4.07;;;2.25;;
53064;SDS011;38948;48.376;-4.312;2022-12-17T17:12:43;3.60;;;2.22;;
53064;SDS011;38948;48.376;-4.312;2022-12-17T17:15:09;5.07;;;2.65;;
53064;SDS011;38948;48.376;-4.312;2022-12-17T17:17:35;5.53;;;2.50;;
53064;SDS011;38948;48.376;-4.312;2022-12-17T17:20:01;4.13;;;2.70;;
53064;SDS011;38948;48.376;-4.312;2022-12-17T17:22:27;4.32;;;2.58;;
53064;SDS011;38948;48.376;-4.312;2022-12-17T17:24:53;5.95;;;2.70;;
53064;SDS011;38948;48.376;-4.312;2022-12-17T17:27:19;5.70;;;2.50;;
53064;SDS011;38948;48.376;-4.312;2022-12-17T17:29:45;5.03;;;2.65;;
53064;SDS011;38948;48.376;-4.312;2022-12-17T17:32:10;4.78;;;2.75;;
53064;SDS011;38948;48.376;-4.312;2022-12-17T17:34:37;5.10;;;2.60;;
53064;SDS011;38948;48.376;-4.312;2022-12-17T17:37:03;5.53;;;2.83;;
53064;SDS011;38948;48.376;-4.312;2022-12-17T17:39:32;7.18;;;3.22;;
53064;SDS011;38948;48.376;-4.312;2022-12-17T17:41:58;6.22;;;2.75;;
53064;SDS011;38948;48.376;-4.312;2022-12-17T17:44:24;4.93;;;2.75;;
53064;SDS011;38948;48.376;-4.312;2022-12-17T17:46:50;7.90;;;2.90;;
53064;SDS011;38948;48.376;-4.312;2022-12-17T17:49:15;6.13;;;2.88;;